EGCN

Robin Hood Doncaster Sheffield Airport

Doncaster, United Kingdom
METAR EGCN 201420Z 29009KT 250V320 CAVOK 25/09 Q1013
Observed Flight Rules
Jul-20 @ 14:20 UTC (27 minutes ago) Visual Flight Rules
Wind Visibility Clouds
290° at 9 knots 10,000+ meters
  • Clear skies
Temperatures Readings
Current 25°C / 77°F
Dewpoint 9°C / 48°F
Humidity 36%
Altimeter 29.91" Hg
Pressure 1013 hPa
Elevation 17
METAR EGCN 201420Z 29009KT 250V320 CAVOK 25/09 Q1013
Observed Flight Rules
Jul-20 @ 14:20 UTC
(27 minutes ago)
VFR
Wind Visibility
290° at 9 knots 10,000+ meters
Clouds
  • Clear skies
Temperature Dewpoint
25°C / 77°F 9°C / 48°F
Humidity Altimeter Pressure
36% 29.91" Hg 1013 hPa